Time;durP1;ratioP1;P1;durP2;ratioP2;P2;SDS_P1;SDS_P2;PMS_P1;PMS_P2;Temp;Humidity;BMP_temperature;BMP_pressure;BME280_temperature;BME280_humidity;BME280_pressure;Samples;Min_cycle;Max_cycle;Signal;HPM_P1;HPM_P2
2021/10/30 00:02:08;;;;;;;26.05;18.02;;;;;;;21.57;53.05;101803.28;1695118;83;21177;-56
2021/10/30 00:04:34;;;;;;;22.07;16.62;;;;;;;21.56;53.07;101807.99;1705182;82;20923;-55
2021/10/30 00:07:01;;;;;;;26.42;17.12;;;;;;;21.56;53.06;101806.61;1688092;83;21177;-55
2021/10/30 00:09:27;;;;;;;22.75;16.87;;;;;;;21.55;53.06;101804.98;1707604;82;21067;-56
2021/10/30 00:11:53;;;;;;;24.87;17.48;;;;;;;21.54;53.07;101806.10;1708876;81;21060;-55
2021/10/30 00:14:19;;;;;;;27.02;17.82;;;;;;;21.54;53.05;101808.05;1760115;80;21072;-55
2021/10/30 00:16:45;;;;;;;25.12;18.40;;;;;;;21.52;53.03;101804.73;1733282;81;21134;-55
2021/10/30 00:19:11;;;;;;;22.85;16.17;;;;;;;21.52;53.05;101808.89;1763465;80;22035;-55
2021/10/30 00:21:37;;;;;;;26.05;17.52;;;;;;;21.52;53.07;101804.73;1762709;80;20886;-56
2021/10/30 00:24:05;;;;;;;26.02;17.32;;;;;;;21.50;53.06;101797.31;1757008;80;21032;-56
2021/10/30 00:26:31;;;;;;;24.25;18.00;;;;;;;21.49;53.06;101798.42;1721932;81;21079;-56
2021/10/30 00:28:58;;;;;;;24.27;17.30;;;;;;;21.48;53.07;101797.59;1729927;81;21100;-57
2021/10/30 00:31:24;;;;;;;23.87;17.70;;;;;;;21.49;53.09;101799.81;1730709;81;21113;-57
2021/10/30 00:33:50;;;;;;;26.02;17.20;;;;;;;21.49;53.09;101798.42;1731968;81;21722;-57
2021/10/30 00:36:16;;;;;;;25.05;17.32;;;;;;;21.49;53.07;101799.81;1730717;81;21565;-56
2021/10/30 00:38:42;;;;;;;23.95;17.45;;;;;;;21.47;53.05;101802.07;1733870;81;21337;-56
2021/10/30 00:41:09;;;;;;;23.50;17.17;;;;;;;21.46;53.06;101800.42;1728951;81;21702;-57
2021/10/30 00:43:36;;;;;;;25.48;16.93;;;;;;;21.45;53.08;101796.00;1761985;80;21797;-57
2021/10/30 00:46:02;;;;;;;24.63;17.73;;;;;;;21.44;53.08;101795.16;1758770;80;21099;-57
2021/10/30 00:48:28;;;;;;;22.58;17.50;;;;;;;21.43;53.07;101794.34;1727847;81;21115;-56
2021/10/30 00:50:59;;;;;;;26.02;17.50;;;;;;;21.42;53.08;101791.89;1762551;80;21368;-56
2021/10/30 00:53:30;;;;;;;25.37;16.97;;;;;;;21.40;53.08;101786.64;1730813;81;21264;-55
2021/10/30 00:56:03;;;;;;;25.15;17.67;;;;;;;21.40;53.09;101784.44;1760074;80;21482;-55
2021/10/30 00:58:29;;;;;;;24.75;17.23;;;;;;;21.40;53.10;101786.64;1731345;81;21083;-55
2021/10/30 01:00:56;;;;;;;21.37;16.37;;;;;;;21.41;53.08;101788.85;1751643;80;21487;-54
2021/10/30 01:03:22;;;;;;;22.35;16.05;;;;;;;21.39;53.06;101782.78;1718821;81;21079;-55
2021/10/30 01:05:48;;;;;;;23.70;16.48;;;;;;;21.37;53.05;101779.50;1732701;81;21048;-55
2021/10/30 01:08:14;;;;;;;23.67;17.60;;;;;;;21.37;53.06;101783.66;1735635;81;22007;-54
2021/10/30 01:10:40;;;;;;;24.37;16.37;;;;;;;21.36;53.06;101781.45;1729528;81;21183;-55
2021/10/30 01:13:06;;;;;;;23.90;17.92;;;;;;;21.36;53.07;101781.45;1733060;81;21055;-55
2021/10/30 01:15:33;;;;;;;25.48;16.90;;;;;;;21.34;53.05;101780.91;1734310;81;21079;-55
2021/10/30 01:17:58;;;;;;;23.73;15.98;;;;;;;21.34;53.07;101781.49;1734818;81;20992;-54
2021/10/30 01:20:26;;;;;;;23.45;16.17;;;;;;;21.33;53.07;101782.61;1734000;81;21285;-55
2021/10/30 01:23:02;;;;;;;23.12;16.70;;;;;;;21.34;53.06;101788.41;1736418;81;21055;-54
2021/10/30 01:25:28;;;;;;;24.92;16.25;;;;;;;21.33;53.08;101782.61;1733360;81;21088;-55
2021/10/30 01:27:56;;;;;;;24.98;17.17;;;;;;;21.32;53.04;101783.72;1730526;81;21519;-55
2021/10/30 01:30:22;;;;;;;25.82;17.23;;;;;;;21.32;53.04;101782.34;1746328;80;21102;-54
2021/10/30 01:33:01;;;;;;;24.10;16.60;;;;;;;21.30;53.02;101790.13;1722544;81;21130;-55
2021/10/30 01:35:34;;;;;;;24.23;17.27;;;;;;;21.29;53.03;101785.16;1722773;81;21660;-55
2021/10/30 01:38:00;;;;;;;22.40;16.73;;;;;;;21.28;53.04;101783.50;1721648;81;21092;-55
2021/10/30 01:40:27;;;;;;;23.35;17.52;;;;;;;21.27;53.01;101786.00;1721972;81;21458;-55
2021/10/30 01:42:55;;;;;;;25.68;17.57;;;;;;;21.27;53.03;101789.33;1735040;80;21125;-55
2021/10/30 01:45:21;;;;;;;25.27;17.20;;;;;;;21.26;53.04;101783.55;1748314;80;21337;-54
2021/10/30 01:47:48;;;;;;;23.20;16.97;;;;;;;21.25;53.02;101777.75;1728319;81;21652;-55
2021/10/30 01:50:14;;;;;;;25.02;17.12;;;;;;;21.25;53.02;101777.75;1753317;80;21039;-54
2021/10/30 01:52:42;;;;;;;22.17;16.73;;;;;;;21.26;53.02;101779.41;1726525;81;21119;-55
2021/10/30 01:55:11;;;;;;;24.72;16.65;;;;;;;21.23;53.00;101780.80;1753356;80;21546;-55
2021/10/30 01:57:37;;;;;;;23.85;17.12;;;;;;;21.23;53.00;101786.89;1713522;81;21330;-55
2021/10/30 02:00:08;;;;;;;26.17;16.82;;;;;;;21.22;53.01;101786.06;1711821;81;21048;-55
2021/10/30 02:02:34;;;;;;;23.55;16.62;;;;;;;21.23;53.00;101786.89;1711193;81;21056;-55
2021/10/30 02:05:00;;;;;;;21.00;15.72;;;;;;;21.21;52.98;101786.38;1713064;81;21072;-55
2021/10/30 02:07:27;;;;;;;22.62;16.62;;;;;;;21.20;52.98;101791.65;1717003;82;21101;-55
2021/10/30 02:09:53;;;;;;;23.60;17.32;;;;;;;21.19;52.97;101793.59;1709063;82;22131;-55
2021/10/30 02:12:19;;;;;;;23.35;17.05;;;;;;;21.19;52.99;101785.29;1710321;81;21110;-55
2021/10/30 02:14:46;;;;;;;24.70;16.67;;;;;;;21.20;52.97;101788.88;1713381;82;21032;-54
2021/10/30 02:17:12;;;;;;;23.45;16.40;;;;;;;21.19;52.97;101788.61;1710700;82;21555;-55
2021/10/30 02:19:38;;;;;;;26.37;16.52;;;;;;;21.19;52.95;101794.98;1708863;82;21123;-55
2021/10/30 02:22:05;;;;;;;23.47;16.42;;;;;;;21.18;52.93;101796.09;1715063;81;21506;-55
2021/10/30 02:24:33;;;;;;;22.98;16.80;;;;;;;21.17;52.93;101793.08;1713054;81;21461;-55
2021/10/30 02:26:59;;;;;;;22.58;16.93;;;;;;;21.17;52.92;101792.25;1715705;82;21113;-55
2021/10/30 02:29:31;;;;;;;23.65;16.70;;;;;;;21.17;52.93;101794.47;1714866;82;21094;-55
2021/10/30 02:31:57;;;;;;;23.15;16.48;;;;;;;21.15;52.92;101795.31;1710257;82;21470;-55
2021/10/30 02:34:23;;;;;;;21.68;16.23;;;;;;;21.14;52.92;101790.06;1714402;81;22625;-55
2021/10/30 02:36:49;;;;;;;26.25;16.73;;;;;;;21.13;52.90;101797.53;1713749;81;21147;-55
2021/10/30 02:39:16;;;;;;;25.27;17.02;;;;;;;21.13;52.93;101793.38;1713018;81;21541;-55
2021/10/30 02:41:42;;;;;;;20.55;15.98;;;;;;;21.14;52.92;101800.57;1714116;81;21028;-55
2021/10/30 02:44:08;;;;;;;22.27;15.65;;;;;;;21.15;52.91;101802.78;1710773;81;21061;-55
2021/10/30 02:46:34;;;;;;;23.60;16.97;;;;;;;21.13;52.88;101807.22;1712512;81;21323;-55
2021/10/30 02:49:00;;;;;;;24.57;16.85;;;;;;;21.12;52.88;101804.21;1706863;81;21131;-55
2021/10/30 02:51:26;;;;;;;20.92;16.32;;;;;;;21.12;52.90;101815.28;1716446;82;20988;-55
2021/10/30 02:53:52;;;;;;;25.57;17.07;;;;;;;21.12;52.89;101814.42;1709854;82;21474;-55
2021/10/30 02:56:18;;;;;;;23.00;16.48;;;;;;;21.11;52.88;101819.13;1716910;81;21551;-56
2021/10/30 02:58:44;;;;;;;22.32;15.63;;;;;;;21.11;52.87;101822.45;1709408;81;21311;-55
2021/10/30 03:01:10;;;;;;;19.80;15.93;;;;;;;21.10;52.87;101822.19;1718507;81;20968;-55
2021/10/30 03:03:36;;;;;;;21.35;15.50;;;;;;;21.09;52.86;101821.94;1713810;81;21004;-55
2021/10/30 03:06:02;;;;;;;22.60;15.38;;;;;;;21.10;52.88;101816.65;1756474;80;20976;-55
2021/10/30 03:08:28;;;;;;;20.52;15.35;;;;;;;21.12;52.89;101819.95;1745748;80;21008;-55
2021/10/30 03:10:54;;;;;;;22.17;15.75;;;;;;;21.14;52.87;101819.94;1747324;80;21087;-55
2021/10/30 03:13:20;;;;;;;20.17;15.65;;;;;;;21.17;52.86;101819.38;1743328;80;21023;-55
2021/10/30 03:15:46;;;;;;;21.02;14.80;;;;;;;21.20;52.85;101827.07;1747067;80;20918;-55
2021/10/30 03:18:12;;;;;;;20.02;15.58;;;;;;;21.23;52.85;101829.23;1756514;80;21081;-55
2021/10/30 03:20:38;;;;;;;19.67;15.35;;;;;;;21.25;52.83;101829.77;1755876;80;21748;-55
2021/10/30 03:23:05;;;;;;;19.15;14.20;;;;;;;21.29;52.81;101830.00;1733488;81;22465;-55
2021/10/30 03:25:31;;;;;;;21.30;14.78;;;;;;;21.30;52.78;101826.91;1764672;80;20885;-55
2021/10/30 03:27:57;;;;;;;18.95;13.35;;;;;;;21.33;52.80;101829.11;1757288;80;21005;-56
2021/10/30 03:30:23;;;;;;;17.52;13.28;;;;;;;21.36;52.78;101831.27;1764075;80;21551;-54
2021/10/30 03:32:50;;;;;;;21.97;14.23;;;;;;;21.38;52.76;101834.58;1715917;81;21377;-56
2021/10/30 03:35:16;;;;;;;21.10;14.23;;;;;;;21.43;52.74;101841.17;1765750;80;21084;-55
2021/10/30 03:37:42;;;;;;;20.72;13.38;;;;;;;21.44;52.73;101836.70;1765574;80;22918;-56
2021/10/30 03:40:11;;;;;;;20.17;14.15;;;;;;;21.46;52.73;101837.23;1759068;80;20940;-55
2021/10/30 03:42:37;;;;;;;21.23;14.40;;;;;;;21.48;52.71;101838.30;1749901;80;21431;-55
2021/10/30 03:45:05;;;;;;;17.20;13.25;;;;;;;21.49;52.71;101833.03;1765134;80;20905;-55
2021/10/30 03:47:31;;;;;;;17.62;12.23;;;;;;;21.49;52.71;101835.25;1760754;80;21131;-55
2021/10/30 03:49:58;;;;;;;17.55;13.10;;;;;;;21.51;52.74;101837.17;1729388;81;21100;-55
2021/10/30 03:52:24;;;;;;;16.73;12.43;;;;;;;21.53;52.74;101836.29;1760704;80;21497;-55
2021/10/30 03:54:50;;;;;;;16.20;12.03;;;;;;;21.55;52.74;101838.22;1757458;80;21258;-55
2021/10/30 03:57:17;;;;;;;18.35;12.78;;;;;;;21.57;52.76;101838.72;1733623;81;21035;-55
2021/10/30 03:59:43;;;;;;;17.02;12.20;;;;;;;21.60;52.74;101838.70;1761992;80;21126;-56
2021/10/30 04:02:09;;;;;;;20.90;13.28;;;;;;;21.61;52.74;101832.84;1760247;80;21702;-54
2021/10/30 04:04:35;;;;;;;17.87;12.85;;;;;;;21.64;52.72;101830.85;1759353;80;21056;-56
2021/10/30 04:07:01;;;;;;;18.62;12.65;;;;;;;21.65;52.74;101835.27;1730537;81;21588;-53
2021/10/30 04:09:27;;;;;;;18.87;13.45;;;;;;;21.66;52.75;101835.55;1760927;80;21139;-55
2021/10/30 04:11:54;;;;;;;16.48;11.95;;;;;;;21.67;52.75;101833.05;1763333;80;21184;-55
2021/10/30 04:14:20;;;;;;;17.73;12.58;;;;;;;21.68;52.77;101841.62;1697657;83;21045;-55
2021/10/30 04:16:46;;;;;;;16.67;11.97;;;;;;;21.69;52.76;101837.70;1713380;81;21103;-55
2021/10/30 04:19:13;;;;;;;17.12;11.48;;;;;;;21.71;52.77;101843.78;1723277;81;20913;-55
2021/10/30 04:21:41;;;;;;;17.23;12.33;;;;;;;21.74;52.78;101845.12;1723521;81;21525;-56
2021/10/30 04:24:07;;;;;;;17.00;12.25;;;;;;;21.74;52.80;101841.79;1720619;81;21246;-55
2021/10/30 04:26:34;;;;;;;17.20;11.95;;;;;;;21.77;52.79;101843.13;1725720;81;21588;-56
2021/10/30 04:29:00;;;;;;;19.32;11.57;;;;;;;21.77;52.79;101834.25;1724379;81;21115;-55
2021/10/30 04:31:29;;;;;;;17.23;11.93;;;;;;;21.78;52.82;101832.31;1723338;81;21495;-55
2021/10/30 04:34:04;;;;;;;16.32;11.63;;;;;;;21.78;52.83;101840.06;1726154;81;21652;-54
2021/10/30 04:36:32;;;;;;;16.82;11.75;;;;;;;21.79;52.82;101843.66;1722642;81;21728;-55
2021/10/30 04:38:59;;;;;;;19.60;12.63;;;;;;;21.78;52.85;101840.06;1726780;81;21073;-55
2021/10/30 04:41:25;;;;;;;15.85;12.00;;;;;;;21.79;52.83;101845.88;1727256;81;21059;-55
2021/10/30 04:43:52;;;;;;;15.55;10.90;;;;;;;21.80;52.84;101842.55;1723387;81;21338;-55
2021/10/30 04:46:21;;;;;;;17.10;11.65;;;;;;;21.81;52.87;101835.89;1727601;81;21085;-55
2021/10/30 04:48:47;;;;;;;16.42;11.48;;;;;;;21.83;52.88;101846.09;1725009;81;21580;-55
2021/10/30 04:51:14;;;;;;;17.40;12.63;;;;;;;21.82;52.86;101838.33;1726433;81;21056;-55
2021/10/30 04:53:42;;;;;;;14.90;11.25;;;;;;;21.83;52.86;101837.22;1756596;80;21412;-55
2021/10/30 04:56:08;;;;;;;16.93;11.53;;;;;;;21.84;52.86;101843.59;1723876;81;21119;-56
2021/10/30 04:58:35;;;;;;;17.52;12.18;;;;;;;21.85;52.86;101841.08;1728479;81;21064;-55
2021/10/30 05:01:02;;;;;;;18.30;12.70;;;;;;;21.83;52.87;101831.67;1728836;81;21538;-55
2021/10/30 05:03:28;;;;;;;17.02;11.83;;;;;;;21.83;52.87;101838.61;1757622;80;21119;-55
2021/10/30 05:05:54;;;;;;;20.50;12.50;;;;;;;21.83;52.88;101841.38;1725971;81;20976;-54
2021/10/30 05:08:20;;;;;;;19.42;11.35;;;;;;;21.83;52.88;101846.09;1729578;81;21103;-55
2021/10/30 05:10:46;;;;;;;16.00;11.12;;;;;;;21.83;52.88;101846.91;1723910;81;21676;-55
2021/10/30 05:13:12;;;;;;;17.95;11.28;;;;;;;21.83;52.91;101849.69;1725812;81;21326;-55
2021/10/30 05:15:39;;;;;;;16.75;11.75;;;;;;;21.84;52.89;101847.74;1702415;82;21469;-55
2021/10/30 05:18:05;;;;;;;16.40;11.65;;;;;;;21.85;52.90;101852.96;1695464;83;21096;-55
2021/10/30 05:20:31;;;;;;;16.55;11.33;;;;;;;21.84;52.88;101852.72;1697383;83;20996;-55
2021/10/30 05:22:57;;;;;;;18.10;12.00;;;;;;;21.84;52.88;101849.12;1700184;83;20918;-55
2021/10/30 05:25:23;;;;;;;17.10;11.90;;;;;;;21.84;52.88;101851.34;1710370;81;21255;-55
2021/10/30 05:27:49;;;;;;;16.25;11.48;;;;;;;21.83;52.87;101853.02;1715200;81;21108;-55
2021/10/30 05:30:16;;;;;;;17.57;11.45;;;;;;;21.83;52.87;101853.84;1713541;81;21064;-55
2021/10/30 05:32:42;;;;;;;18.07;12.40;;;;;;;21.83;52.88;101854.40;1717112;81;21096;-56
2021/10/30 05:35:08;;;;;;;16.67;11.33;;;;;;;21.81;52.89;101847.77;1711728;81;21096;-56
2021/10/30 05:37:35;;;;;;;16.75;12.53;;;;;;;21.82;52.89;101849.97;1713540;81;21096;-56
2021/10/30 05:40:03;;;;;;;16.52;10.88;;;;;;;21.81;52.89;101846.38;1712212;81;20894;-56
2021/10/30 05:42:29;;;;;;;16.35;11.88;;;;;;;21.84;52.88;101856.05;1713684;81;21098;-55
2021/10/30 05:44:55;;;;;;;17.55;11.90;;;;;;;21.83;52.88;101858.00;1723124;81;21096;-55
2021/10/30 05:47:21;;;;;;;18.20;12.18;;;;;;;21.83;52.88;101859.38;1714071;81;22190;-55
2021/10/30 05:49:47;;;;;;;17.95;11.73;;;;;;;21.82;52.88;101856.34;1716822;81;21101;-55
2021/10/30 05:52:13;;;;;;;17.35;12.00;;;;;;;21.81;52.88;101860.81;1714672;81;21095;-55
2021/10/30 05:54:39;;;;;;;17.00;12.03;;;;;;;21.81;52.87;101863.59;1716565;81;21080;-56
2021/10/30 05:57:11;;;;;;;18.10;11.48;;;;;;;21.79;52.88;101868.03;1716949;81;21131;-56
2021/10/30 05:59:37;;;;;;;23.87;15.20;;;;;;;21.79;52.88;101865.27;1695289;83;21139;-56
2021/10/30 06:02:05;;;;;;;24.43;15.80;;;;;;;21.78;52.82;101868.32;1700476;83;21482;-56
2021/10/30 06:04:32;;;;;;;26.07;15.45;;;;;;;21.78;52.42;101871.09;1709390;81;21203;-55
2021/10/30 06:06:58;;;;;;;24.43;16.70;;;;;;;21.76;52.02;101876.95;1714984;81;21095;-58
2021/10/30 06:09:24;;;;;;;24.35;16.60;;;;;;;21.75;51.70;101878.63;1717425;81;21651;-59
2021/10/30 06:11:50;;;;;;;25.50;15.60;;;;;;;21.73;51.39;101876.70;1716808;81;21108;-58
2021/10/30 06:14:16;;;;;;;25.77;17.23;;;;;;;21.72;51.11;101882.00;1705342;81;21252;-58
2021/10/30 06:16:42;;;;;;;28.47;17.12;;;;;;;21.71;50.85;101883.12;1726115;81;20892;-53
2021/10/30 06:19:08;;;;;;;28.42;16.90;;;;;;;21.69;50.62;101882.02;1721989;81;21016;-59
2021/10/30 06:21:33;;;;;;;28.92;17.25;;;;;;;21.69;50.35;101876.48;1721001;81;21594;-57
2021/10/30 06:23:59;;;;;;;30.17;17.62;;;;;;;21.67;50.09;101878.74;1738459;80;20940;-58
2021/10/30 06:26:27;;;;;;;43.23;19.07;;;;;;;21.67;49.92;101876.53;1740009;81;21585;-58
2021/10/30 06:28:54;;;;;;;48.38;20.48;;;;;;;21.66;49.85;101870.16;1749881;80;21354;-60
2021/10/30 06:31:21;;;;;;;35.45;17.55;;;;;;;21.66;49.94;101871.55;1749257;80;21063;-59
2021/10/30 06:33:48;;;;;;;33.88;18.42;;;;;;;21.67;50.04;101875.97;1712453;82;21102;-57
2021/10/30 06:36:14;;;;;;;76.15;25.12;;;;;;;21.68;50.06;101879.57;1717024;82;21541;-56
2021/10/30 06:38:40;;;;;;;104.67;30.45;;;;;;;21.68;49.99;101883.72;1716039;82;21329;-54
2021/10/30 06:41:08;;;;;;;58.73;21.02;;;;;;;21.68;50.04;101877.63;1726276;81;21013;-53
2021/10/30 06:43:35;;;;;;;36.42;17.85;;;;;;;21.68;50.14;101885.11;1723029;81;21537;-52
2021/10/30 06:46:02;;;;;;;32.53;16.80;;;;;;;21.68;50.22;101882.34;1749651;80;21122;-58
2021/10/30 06:48:28;;;;;;;57.00;22.75;;;;;;;21.68;50.33;101887.32;1742921;80;21053;-59
2021/10/30 06:50:55;;;;;;;75.57;26.93;;;;;;;21.69;50.41;101886.73;1723159;81;21332;-59
2021/10/30 06:53:21;;;;;;;41.77;17.40;;;;;;;21.69;50.51;101883.96;1720483;81;21141;-58
2021/10/30 06:55:48;;;;;;;28.92;15.70;;;;;;;21.70;50.60;101889.22;1722566;81;21463;-58
2021/10/30 06:58:17;;;;;;;24.65;14.15;;;;;;;21.70;50.65;101890.59;1750491;80;21546;-58
2021/10/30 07:00:44;;;;;;;23.65;14.20;;;;;;;21.72;50.69;101886.16;1725410;81;21087;-58
2021/10/30 07:03:09;;;;;;;25.57;14.83;;;;;;;21.73;50.74;101884.45;1741887;80;21300;-59
2021/10/30 07:05:36;;;;;;;22.77;13.85;;;;;;;21.74;50.75;101878.36;1746575;80;20886;-58
2021/10/30 07:08:03;;;;;;;22.10;14.00;;;;;;;21.75;50.80;101878.63;1749448;80;21095;-58
2021/10/30 07:10:29;;;;;;;23.87;13.95;;;;;;;21.74;50.81;101877.80;1746471;80;21139;-58
2021/10/30 07:12:55;;;;;;;24.15;14.83;;;;;;;21.73;50.85;101881.69;1746989;80;21421;-58
2021/10/30 07:15:21;;;;;;;45.25;18.52;;;;;;;21.73;50.89;101890.55;1726894;81;21669;-61
2021/10/30 07:17:47;;;;;;;59.70;21.82;;;;;;;21.72;50.93;101889.75;1746024;80;21064;-56
2021/10/30 07:20:13;;;;;;;134.20;35.58;;;;;;;21.73;50.98;101891.37;1752763;80;20899;-54
2021/10/30 07:22:47;;;;;;;92.80;28.32;;;;;;;21.75;51.04;101885.55;1756599;80;20981;-57
2021/10/30 07:25:14;;;;;;;164.15;40.38;;;;;;;21.77;51.07;101880.52;1766010;80;21123;-53
2021/10/30 07:27:41;;;;;;;169.77;45.80;;;;;;;21.77;51.13;101877.19;1757945;80;21209;-63
2021/10/30 07:30:09;;;;;;;80.90;24.57;;;;;;;21.77;51.18;101875.80;1745572;80;20976;-63
2021/10/30 07:32:35;;;;;;;76.87;27.00;;;;;;;21.77;51.23;101877.19;1763472;80;20992;-63
2021/10/30 07:35:02;;;;;;;79.35;27.45;;;;;;;21.77;51.29;101874.42;1740839;81;21055;-61
2021/10/30 07:37:29;;;;;;;170.22;44.67;;;;;;;21.78;51.33;101881.61;1737656;81;20981;-57
2021/10/30 07:39:56;;;;;;;176.82;47.48;;;;;;;21.78;51.39;101869.70;1739045;81;21364;-59
2021/10/30 07:42:22;;;;;;;127.62;36.45;;;;;;;21.77;51.44;101868.88;1741716;81;21043;-60
2021/10/30 07:44:48;;;;;;;122.60;35.40;;;;;;;21.77;51.50;101859.74;1740103;81;21076;-60
2021/10/30 07:47:14;;;;;;;64.53;22.30;;;;;;;21.79;51.53;101857.52;1737533;81;20885;-60
2021/10/30 07:49:41;;;;;;;24.67;12.45;;;;;;;21.81;51.56;101865.77;1740344;81;20873;-61
2021/10/30 07:52:09;;;;;;;23.02;12.20;;;;;;;21.82;51.59;101864.66;1738002;81;21114;-61
2021/10/30 07:54:35;;;;;;;25.88;12.93;;;;;;;21.84;51.56;101862.42;1739554;81;21130;-61
2021/10/30 07:57:06;;;;;;;24.72;12.10;;;;;;;21.86;51.56;101861.54;1739417;81;21166;-61
2021/10/30 07:59:32;;;;;;;60.65;19.37;;;;;;;21.88;51.57;101861.25;1736327;81;21506;-58
2021/10/30 08:02:01;;;;;;;19.57;10.90;;;;;;;21.91;51.57;101855.10;1752967;80;20906;-59
2021/10/30 08:04:28;;;;;;;22.50;11.88;;;;;;;21.92;51.59;101859.55;1714025;81;22861;-58
2021/10/30 08:06:54;;;;;;;19.15;11.03;;;;;;;21.93;51.59;101856.23;1730106;81;21317;-60
2021/10/30 08:09:20;;;;;;;28.77;12.82;;;;;;;21.94;51.61;101853.13;1756799;80;21110;-59
2021/10/30 08:11:46;;;;;;;21.82;11.18;;;;;;;21.97;51.63;101853.11;1754871;80;20892;-61
2021/10/30 08:14:12;;;;;;;28.80;13.35;;;;;;;21.99;51.66;101851.67;1742708;80;21060;-59
2021/10/30 08:16:39;;;;;;;28.87;12.73;;;;;;;22.03;51.71;101853.27;1746874;80;21236;-59
2021/10/30 08:19:05;;;;;;;21.12;10.28;;;;;;;22.06;51.73;101852.69;1723741;81;21083;-60
2021/10/30 08:21:32;;;;;;;20.85;10.00;;;;;;;22.09;51.78;101850.13;1725090;81;21585;-58
2021/10/30 08:23:58;;;;;;;20.57;9.73;;;;;;;22.13;51.83;101851.17;1711196;82;21612;-60
2021/10/30 08:26:25;;;;;;;19.12;11.05;;;;;;;22.17;51.86;101848.61;1735592;81;21091;-59
2021/10/30 08:28:51;;;;;;;21.30;11.83;;;;;;;22.19;51.90;101847.17;1755061;80;22015;-58
2021/10/30 08:31:17;;;;;;;20.08;12.43;;;;;;;22.21;51.90;101857.41;1727557;81;21044;-58
2021/10/30 08:33:44;;;;;;;25.30;13.18;;;;;;;22.22;51.89;101856.28;1756364;80;21515;-60
2021/10/30 08:36:10;;;;;;;24.12;14.07;;;;;;;22.23;51.85;101857.94;1755976;80;21137;-62
2021/10/30 08:38:36;;;;;;;24.92;13.65;;;;;;;22.24;51.83;101855.41;1724705;81;21624;-62
2021/10/30 08:41:03;;;;;;;26.23;13.70;;;;;;;22.24;51.81;101859.56;1728045;81;21194;-59
2021/10/30 08:43:29;;;;;;;27.87;14.40;;;;;;;22.26;51.77;101862.05;1727817;81;21471;-58
2021/10/30 08:45:56;;;;;;;28.75;14.10;;;;;;;22.27;51.73;101859.53;1754955;80;21013;-58
2021/10/30 08:48:23;;;;;;;24.50;12.58;;;;;;;22.29;51.68;101863.64;1751828;80;21661;-61
2021/10/30 08:50:53;;;;;;;20.32;13.30;;;;;;;22.30;51.64;101862.52;1735437;81;21653;-57
2021/10/30 08:53:20;;;;;;;26.52;14.70;;;;;;;22.32;51.59;101852.49;1734500;81;21163;-59
2021/10/30 08:55:47;;;;;;;31.50;15.00;;;;;;;22.32;51.54;101851.11;1737445;81;21157;-60
2021/10/30 08:58:14;;;;;;;22.02;12.80;;;;;;;22.33;51.48;101858.30;1735100;81;20975;-54
2021/10/30 09:00:53;;;;;;;24.05;13.60;;;;;;;22.34;51.46;101858.57;1737708;81;21581;-56
2021/10/30 09:03:20;;;;;;;21.55;13.68;;;;;;;22.34;51.47;101853.02;1714161;82;21057;-57
2021/10/30 09:05:50;;;;;;;19.87;12.10;;;;;;;22.33;51.51;101859.69;1718796;81;21820;-57
2021/10/30 09:08:17;;;;;;;20.77;11.53;;;;;;;22.33;51.51;101854.97;1752785;80;21111;-57
2021/10/30 09:10:52;;;;;;;27.37;12.40;;;;;;;22.36;51.55;101849.96;1724054;81;21031;-58
2021/10/30 09:13:20;;;;;;;17.23;11.38;;;;;;;22.36;51.58;101848.02;1749646;80;21074;-58
2021/10/30 09:15:51;;;;;;;18.98;11.57;;;;;;;22.38;51.58;101851.84;1749885;80;21081;-57
2021/10/30 09:18:37;;;;;;;19.07;10.98;;;;;;;22.39;51.61;101857.66;1732404;81;22033;-59
2021/10/30 09:21:13;;;;;;;34.38;15.70;;;;;;;22.37;51.66;101846.86;1739086;81;21060;-58
2021/10/30 09:23:53;;;;;;;38.73;16.85;;;;;;;22.41;51.70;101845.69;1752249;80;21428;-58
2021/10/30 09:26:25;;;;;;;36.80;15.13;;;;;;;22.40;51.72;101844.89;1730273;81;21123;-57
2021/10/30 09:29:00;;;;;;;37.55;16.30;;;;;;;22.41;51.79;101844.30;1723962;81;21059;-58
2021/10/30 09:31:25;;;;;;;35.73;16.25;;;;;;;22.41;51.84;101847.89;1725841;81;21258;-56
2021/10/30 09:34:04;;;;;;;40.92;17.82;;;;;;;22.42;51.89;101848.72;1758618;80;21075;-58
2021/10/30 09:36:39;;;;;;;31.80;13.40;;;;;;;22.42;51.95;101849.55;1727032;81;21028;-58
2021/10/30 09:39:11;;;;;;;24.67;14.10;;;;;;;22.43;51.98;101844.27;1727791;81;21128;-58
2021/10/30 09:41:40;;;;;;;25.20;12.60;;;;;;;22.44;52.03;101844.54;1730435;81;21505;-56
2021/10/30 09:44:14;;;;;;;57.60;20.35;;;;;;;22.45;52.09;101845.36;1727864;81;21066;-57
2021/10/30 09:46:52;;;;;;;39.95;17.67;;;;;;;22.46;52.14;101841.44;1715952;81;21561;-57
2021/10/30 09:49:23;;;;;;;57.98;21.93;;;;;;;22.46;52.22;101848.38;1709485;82;21115;-56
2021/10/30 09:52:10;;;;;;;29.07;15.13;;;;;;;22.45;52.25;101841.20;1748508;80;21537;-56
2021/10/30 09:54:40;;;;;;;21.45;12.35;;;;;;;22.45;52.32;101835.66;1745605;80;21005;-57
2021/10/30 09:57:12;;;;;;;33.63;15.73;;;;;;;22.45;52.39;101839.22;1744024;80;21085;-57
2021/10/30 09:59:40;;;;;;;48.00;18.57;;;;;;;22.45;52.43;101843.98;1753889;80;21101;-58
2021/10/30 10:02:07;;;;;;;109.72;30.97;;;;;;;22.47;52.48;101841.70;1746732;80;21108;-58
2021/10/30 10:04:38;;;;;;;52.80;19.40;;;;;;;22.47;52.52;101835.59;1746378;80;21099;-57
2021/10/30 10:07:06;;;;;;;59.10;21.68;;;;;;;22.48;52.60;101833.65;1737758;81;21095;-57
2021/10/30 10:09:32;;;;;;;25.62;13.83;;;;;;;22.48;52.67;101827.55;1732942;81;21951;-56
2021/10/30 10:11:59;;;;;;;24.15;13.05;;;;;;;22.48;52.74;101831.70;1754185;80;21055;-57
2021/10/30 10:14:26;;;;;;;21.42;12.37;;;;;;;22.48;52.77;101833.65;1727399;81;21643;-57
2021/10/30 10:16:53;;;;;;;22.13;13.15;;;;;;;22.47;52.83;101823.12;1755629;80;21039;-57
2021/10/30 10:19:21;;;;;;;19.02;11.93;;;;;;;22.46;52.88;101819.25;1757634;80;21138;-58
2021/10/30 10:21:49;;;;;;;31.68;15.05;;;;;;;22.47;52.95;101820.34;1754257;80;21024;-58
2021/10/30 10:24:18;;;;;;;20.88;11.80;;;;;;;22.50;52.97;101813.35;1716400;81;21589;-59
2021/10/30 10:26:51;;;;;;;22.58;13.45;;;;;;;22.51;53.03;101810.28;1754458;80;21060;-58
2021/10/30 10:29:42;;;;;;;20.30;13.32;;;;;;;22.53;53.06;101808.01;1757549;80;22622;-58
2021/10/30 10:32:18;;;;;;;24.45;14.13;;;;;;;22.55;53.08;101800.78;1751611;81;21067;-58
2021/10/30 10:34:45;;;;;;;24.35;13.28;;;;;;;22.55;53.07;101802.99;1753850;80;21082;-60
2021/10/30 10:37:17;;;;;;;17.75;12.33;;;;;;;22.54;53.13;101797.18;1750851;80;21850;-60
2021/10/30 10:39:50;;;;;;;19.77;11.80;;;;;;;22.55;53.14;101800.78;1759318;80;21052;-61
2021/10/30 10:42:36;;;;;;;17.37;11.63;;;;;;;22.54;53.19;101795.80;1748958;80;21028;-61
2021/10/30 10:45:15;;;;;;;14.50;8.88;;;;;;;22.56;53.24;101792.73;1750276;80;21775;-61
2021/10/30 10:47:50;;;;;;;17.83;11.13;;;;;;;22.57;53.26;101792.43;1753352;80;21136;-61
2021/10/30 10:50:29;;;;;;;27.85;16.15;;;;;;;22.58;53.26;101782.13;1752688;80;21665;-61
2021/10/30 10:53:13;;;;;;;25.57;15.13;;;;;;;22.58;53.18;101774.64;1756688;80;21017;-60
2021/10/30 10:55:48;;;;;;;41.68;18.87;;;;;;;22.59;53.09;101772.69;1722209;81;21457;-66
2021/10/30 10:58:16;;;;;;;45.45;18.12;;;;;;;22.60;53.10;101769.62;1751971;80;21068;-65
2021/10/30 11:01:13;;;;;;;46.55;19.42;;;;;;;22.60;53.11;101759.08;1755000;80;21886;-62
2021/10/30 11:03:41;;;;;;;55.30;22.90;;;;;;;22.59;53.15;101766.58;1752581;80;21062;-64
2021/10/30 11:06:08;;;;;;;155.82;50.23;;;;;;;22.59;53.22;101764.37;1753276;80;21048;-65
2021/10/30 11:08:34;;;;;;;95.97;37.03;;;;;;;22.58;53.26;101752.45;1754278;80;21503;-64
2021/10/30 11:11:20;;;;;;;31.70;15.90;;;;;;;22.58;53.31;101748.84;1760848;80;21145;-64
2021/10/30 11:13:59;;;;;;;123.13;44.60;;;;;;;22.59;53.36;101745.78;1748895;81;21188;-64